Flight Number: EUR1096 Duration: 3:30
Departure: Heraklion (Crete) (LGIR) at 18:30 Distance: 1449 Nm
Arrival: Gatwick Airport (EGKK) at 22:00 Equipment: MD-81

Weather Information
Heraklion Airport , Greece (LGIR) 35-20N 025-11E 39M May 22, 2018 - 03:20 PM EDT / 2018.05.22 1920 UTC
Wind: Variable at 3 MPH (3 KT):0
Visibility: greater than 7 mile(s):0
Sky conditions: partly cloudy Temperature: 69 F (21 C) Dew Point: 68 F (20 C) Relative Humidity: 94% Pressure (altimeter): 30.00 in. Hg (1016 hPa)
ob: LGIR 221920Z VRB03KT 9999 FEW018 SCT080 21/20 Q1016 NOSIG cycle: 19
Sunrise: 03:13 Sunset: 17:18 (UTC)

London / Gatwick Airport, United Kingdom (EGKK) 51-09N 000-11W 0M May 22, 2018 - 03:20 PM EDT / 2018.05.22 1920 UTC
Wind: from the N (010 degrees) at 12 MPH (10 KT):0
Visibility: greater than 7 mile(s):0 Temperature: 64 F (18 C) Dew Point: 50 F (10 C) Relative Humidity: 59% Pressure (altimeter): 30.06 in. Hg (1018 hPa)
ob: EGKK 221920Z 01010KT CAVOK 18/10 Q1018 cycle: 19
Sunrise: 04:04 Sunset: 19:50 (UTC)

TAF:2018/05/22 18:15 TAF EGKK 221701Z 2218/2324 01012KT 9999 FEW045 PROB30 TEMPO 2301/2308 8000 BKN009 PROB30 TEMPO 2316/2324 6000 SHRA

Previous Pireps for this route
Date Aircraft Flight time Fuel used Landing rate On time
2013-10-27A32104.2327006-181Charter
2015-01-01MD-813.53245290No
2015-03-25MD-8103.4325616-374Yes
(pireps marked green are flown by you)

Route map